DAH2014 DAAG-LEBL
Flight info
| Callsign | DAH2014 |
|---|---|
| Flight time | N/A |
| Altitude | 34000 |
| Route | SADAF DCT SURIB DCT INSUB DCT RONDU DCT IZA DCT OKITI DCT GODOX DCT EPAMA DCT MARTA |
| Aircraft | A339/H-SADE1E2E3GHIJ3J5M1P2RWXY/LB2D1 |
Departure
| Time | 2026-05-08 22:11 |
|---|---|
| Airport | Houari Boumediene Airport (DAAG) |
Arrival
| Time | N/A |
|---|---|
| Airport | Josep Tarradellas Barcelona-El Prat Airport (LEBL) |
| Time | Latitude | Longitude | Altitude | Speed | Heading |
|---|---|---|---|---|---|
| 2026-05-08 21:45 | 36.69603 | 3.20290 | 76 ft | 0 kts | 326° |
| 2026-05-08 21:59 | 36.69598 | 3.20293 | 75 ft | 3 kts | 326° |
| 2026-05-08 21:59 | 36.69581 | 3.20308 | 65 ft | 3 kts | 326° |
| 2026-05-08 21:59 | 36.69563 | 3.20323 | 65 ft | 3 kts | 326° |
| 2026-05-08 22:00 | 36.69546 | 3.20337 | 65 ft | 3 kts | 326° |
| 2026-05-08 22:00 | 36.69529 | 3.20352 | 65 ft | 3 kts | 326° |
| 2026-05-08 22:00 | 36.69511 | 3.20366 | 65 ft | 3 kts | 343° |
| 2026-05-08 22:00 | 36.69490 | 3.20372 | 65 ft | 3 kts | 2° |
| 2026-05-08 22:01 | 36.69469 | 3.20370 | 65 ft | 3 kts | 347° |
| 2026-05-08 22:01 | 36.69448 | 3.20378 | 65 ft | 3 kts | 298° |
| 2026-05-08 22:01 | 36.69442 | 3.20402 | 65 ft | 3 kts | 260° |
| 2026-05-08 22:01 | 36.69445 | 3.20428 | 65 ft | 3 kts | 269° |
| 2026-05-08 22:02 | 36.69445 | 3.20445 | 65 ft | 3 kts | 272° |
| 2026-05-08 22:02 | 36.69445 | 3.20450 | 65 ft | 0 kts | 273° |
| 2026-05-08 22:03 | 36.69445 | 3.20448 | 65 ft | 1 kts | 273° |
| 2026-05-08 22:03 | 36.69445 | 3.20396 | 65 ft | 10 kts | 270° |
| 2026-05-08 22:03 | 36.69447 | 3.20266 | 69 ft | 20 kts | 272° |
| 2026-05-08 22:04 | 36.69451 | 3.20164 | 70 ft | 10 kts | 272° |
| 2026-05-08 22:04 | 36.69455 | 3.20031 | 76 ft | 21 kts | 272° |
| 2026-05-08 22:04 | 36.69456 | 3.19977 | 76 ft | 8 kts | 270° |
| 2026-05-08 22:04 | 36.69436 | 3.19921 | 71 ft | 1 kts | 226° |
| 2026-05-08 22:05 | 36.69435 | 3.19919 | 73 ft | 0 kts | 226° |
| 2026-05-08 22:05 | 36.69411 | 3.19891 | 72 ft | 11 kts | 224° |
| 2026-05-08 22:05 | 36.69336 | 3.19789 | 71 ft | 21 kts | 234° |
| 2026-05-08 22:06 | 36.69315 | 3.19574 | 70 ft | 30 kts | 272° |
| 2026-05-08 22:06 | 36.69323 | 3.19279 | 69 ft | 38 kts | 272° |
| 2026-05-08 22:06 | 36.69332 | 3.18917 | 70 ft | 45 kts | 272° |
| 2026-05-08 22:06 | 36.69339 | 3.18496 | 77 ft | 52 kts | 271° |
| 2026-05-08 22:07 | 36.69352 | 3.18054 | 76 ft | 49 kts | 271° |
| 2026-05-08 22:07 | 36.69361 | 3.17661 | 70 ft | 47 kts | 272° |
| 2026-05-08 22:07 | 36.69369 | 3.17337 | 77 ft | 8 kts | 271° |
| 2026-05-08 22:07 | 36.69371 | 3.17228 | 77 ft | 16 kts | 271° |
| 2026-05-08 22:08 | 36.69367 | 3.17146 | 77 ft | 2 kts | 257° |
| 2026-05-08 22:08 | 36.69346 | 3.17112 | 75 ft | 7 kts | 220° |
| 2026-05-08 22:08 | 36.69307 | 3.17102 | 85 ft | 0 kts | 188° |
| 2026-05-08 22:09 | 36.69306 | 3.17102 | 80 ft | 1 kts | 188° |
| 2026-05-08 22:09 | 36.69271 | 3.17096 | 85 ft | 11 kts | 184° |
| 2026-05-08 22:09 | 36.69196 | 3.17114 | 89 ft | 10 kts | 159° |
| 2026-05-08 22:09 | 36.69196 | 3.17141 | 89 ft | 7 kts | 82° |
| 2026-05-08 22:10 | 36.69202 | 3.17211 | 88 ft | 0 kts | 91° |
| 2026-05-08 22:10 | 36.69202 | 3.17229 | 86 ft | 0 kts | 91° |
| 2026-05-08 22:10 | 36.69200 | 3.17322 | 85 ft | 34 kts | 91° |
| 2026-05-08 22:10 | 36.69185 | 3.18020 | 86 ft | 124 kts | 91° |
| 2026-05-08 22:11 | 36.69140 | 3.19310 | 509 ft | 156 kts | 92° |
| 2026-05-08 22:11 | 36.69077 | 3.20680 | 1494 ft | 152 kts | 92° |
| 2026-05-08 22:11 | 36.69076 | 3.22053 | 2384 ft | 166 kts | 89° |
| 2026-05-08 22:11 | 36.69123 | 3.23501 | 3275 ft | 168 kts | 89° |
| 2026-05-08 22:12 | 36.69228 | 3.25057 | 3705 ft | 197 kts | 86° |
| 2026-05-08 22:12 | 36.69569 | 3.26787 | 4196 ft | 215 kts | 66° |
| 2026-05-08 22:12 | 36.70615 | 3.28079 | 5072 ft | 220 kts | 28° |
| 2026-05-08 22:12 | 36.72163 | 3.28413 | 5549 ft | 239 kts | 352° |
| 2026-05-08 22:13 | 36.73735 | 3.27579 | 5925 ft | 256 kts | 323° |
| 2026-05-08 22:13 | 36.75177 | 3.26146 | 6212 ft | 274 kts | 318° |
| 2026-05-08 22:13 | 36.76664 | 3.24547 | 6637 ft | 286 kts | 317° |
| 2026-05-08 22:13 | 36.78177 | 3.22926 | 7341 ft | 287 kts | 317° |
| 2026-05-08 22:14 | 36.79698 | 3.21324 | 8039 ft | 290 kts | 317° |
| 2026-05-08 22:14 | 36.81262 | 3.19702 | 8739 ft | 293 kts | 316° |
| 2026-05-08 22:14 | 36.82847 | 3.18071 | 9452 ft | 297 kts | 316° |
| 2026-05-08 22:14 | 36.84448 | 3.16426 | 10156 ft | 300 kts | 315° |
| 2026-05-08 22:15 | 36.86104 | 3.14717 | 10427 ft | 319 kts | 315° |
| 2026-05-08 22:15 | 36.87871 | 3.12886 | 10634 ft | 339 kts | 315° |
| 2026-05-08 22:15 | 36.89724 | 3.10970 | 11025 ft | 349 kts | 315° |
| 2026-05-08 22:15 | 36.91552 | 3.09089 | 11669 ft | 352 kts | 315° |
| 2026-05-08 22:16 | 36.93454 | 3.07134 | 12321 ft | 354 kts | 315° |
| 2026-05-08 22:16 | 36.95363 | 3.05167 | 13003 ft | 357 kts | 315° |
| 2026-05-08 22:16 | 36.97287 | 3.03177 | 13575 ft | 362 kts | 315° |
| 2026-05-08 22:16 | 36.99229 | 3.01168 | 14204 ft | 364 kts | 315° |
| 2026-05-08 22:17 | 37.01190 | 2.99136 | 14798 ft | 366 kts | 315° |
| 2026-05-08 22:17 | 37.03155 | 2.97097 | 15387 ft | 368 kts | 315° |
| 2026-05-08 22:17 | 37.05134 | 2.95043 | 15963 ft | 371 kts | 315° |
| 2026-05-08 22:17 | 37.07126 | 2.92973 | 16510 ft | 375 kts | 316° |
| 2026-05-08 22:18 | 37.09163 | 2.90850 | 16869 ft | 382 kts | 316° |
| 2026-05-08 22:18 | 37.11205 | 2.88731 | 17582 ft | 381 kts | 317° |
| 2026-05-08 22:18 | 37.13399 | 2.86844 | 18238 ft | 384 kts | 323° |
| 2026-05-08 22:18 | 37.15676 | 2.85058 | 18672 ft | 388 kts | 323° |
| 2026-05-08 22:19 | 37.17849 | 2.83089 | 18738 ft | 381 kts | 311° |
| 2026-05-08 22:19 | 37.19445 | 2.80494 | 18851 ft | 373 kts | 294° |
| 2026-05-08 22:19 | 37.20296 | 2.77474 | 18958 ft | 365 kts | 276° |
| 2026-05-08 22:19 | 37.20350 | 2.74322 | 18974 ft | 359 kts | 261° |
| 2026-05-08 22:20 | 37.19706 | 2.71396 | 18960 ft | 351 kts | 244° |
| 2026-05-08 22:20 | 37.18386 | 2.68965 | 18968 ft | 329 kts | 225° |
| 2026-05-08 22:20 | 37.16589 | 2.67412 | 18967 ft | 312 kts | 206° |
| 2026-05-08 22:20 | 37.14526 | 2.66726 | 18975 ft | 309 kts | 189° |
| 2026-05-08 22:21 | 37.12353 | 2.66685 | 18970 ft | 316 kts | 180° |
| 2026-05-08 22:21 | 37.10172 | 2.67035 | 18837 ft | 314 kts | 174° |
| 2026-05-08 22:21 | 37.08009 | 2.67407 | 18158 ft | 313 kts | 184° |
| 2026-05-08 22:21 | 37.05857 | 2.67152 | 17445 ft | 308 kts | 191° |
| 2026-05-08 22:22 | 37.03753 | 2.66793 | 16748 ft | 303 kts | 191° |
| 2026-05-08 22:22 | 37.01673 | 2.66433 | 16024 ft | 300 kts | 191° |
| 2026-05-08 22:22 | 36.99619 | 2.66076 | 15324 ft | 296 kts | 191° |
| 2026-05-08 22:22 | 36.97613 | 2.65728 | 14637 ft | 293 kts | 191° |
| 2026-05-08 22:23 | 36.95607 | 2.65381 | 13972 ft | 289 kts | 191° |
| 2026-05-08 22:23 | 36.93640 | 2.65030 | 13287 ft | 283 kts | 191° |
| 2026-05-08 22:23 | 36.91700 | 2.64676 | 12528 ft | 280 kts | 191° |
| 2026-05-08 22:23 | 36.89782 | 2.64321 | 11775 ft | 277 kts | 191° |
| 2026-05-08 22:24 | 36.87897 | 2.63967 | 11197 ft | 269 kts | 191° |
| 2026-05-08 22:24 | 36.86064 | 2.63622 | 10528 ft | 264 kts | 191° |
| 2026-05-08 22:24 | 36.84256 | 2.63278 | 9837 ft | 261 kts | 191° |
| 2026-05-08 22:24 | 36.82556 | 2.62635 | 9184 ft | 252 kts | 210° |
| 2026-05-08 22:25 | 36.81292 | 2.61174 | 8448 ft | 251 kts | 235° |
| 2026-05-08 22:25 | 36.80742 | 2.59138 | 7969 ft | 245 kts | 261° |
| 2026-05-08 22:25 | 36.80598 | 2.57048 | 7436 ft | 240 kts | 262° |
| 2026-05-08 22:25 | 36.80445 | 2.54968 | 6939 ft | 241 kts | 262° |
| 2026-05-08 22:26 | 36.80280 | 2.52893 | 6490 ft | 240 kts | 262° |
| 2026-05-08 22:26 | 36.80102 | 2.50846 | 6012 ft | 240 kts | 262° |
| 2026-05-08 22:26 | 36.79586 | 2.48892 | 5485 ft | 238 kts | 234° |
| 2026-05-08 22:26 | 36.78396 | 2.47564 | 5342 ft | 234 kts | 205° |
| 2026-05-08 22:27 | 36.76805 | 2.47149 | 5265 ft | 236 kts | 176° |
| 2026-05-08 22:27 | 36.75259 | 2.47776 | 5162 ft | 234 kts | 146° |
| 2026-05-08 22:27 | 36.74182 | 2.49277 | 5074 ft | 235 kts | 117° |
| 2026-05-08 22:27 | 36.73772 | 2.51247 | 5004 ft | 237 kts | 99° |
| 2026-05-08 22:28 | 36.73488 | 2.53248 | 4990 ft | 238 kts | 101° |
| 2026-05-08 22:28 | 36.73172 | 2.55268 | 4990 ft | 236 kts | 101° |
| 2026-05-08 22:28 | 36.72862 | 2.57279 | 4983 ft | 235 kts | 102° |
| 2026-05-08 22:28 | 36.72562 | 2.59285 | 5004 ft | 236 kts | 101° |
| 2026-05-08 22:29 | 36.72252 | 2.61303 | 5005 ft | 237 kts | 101° |
| 2026-05-08 22:29 | 36.71939 | 2.63315 | 5005 ft | 237 kts | 101° |
| 2026-05-08 22:29 | 36.71629 | 2.65333 | 4911 ft | 237 kts | 102° |
| 2026-05-08 22:29 | 36.71283 | 2.67325 | 4674 ft | 233 kts | 105° |
| 2026-05-08 22:30 | 36.70863 | 2.69264 | 4303 ft | 231 kts | 107° |
| 2026-05-08 22:30 | 36.70455 | 2.71155 | 4191 ft | 226 kts | 107° |
| 2026-05-08 22:30 | 36.70152 | 2.73093 | 4105 ft | 233 kts | 95° |
| 2026-05-08 22:30 | 36.70170 | 2.75102 | 4018 ft | 231 kts | 91° |
| 2026-05-08 22:31 | 36.70156 | 2.77092 | 4000 ft | 230 kts | 94° |
| 2026-05-08 22:31 | 36.70100 | 2.79081 | 3995 ft | 225 kts | 93° |
| 2026-05-08 22:31 | 36.70058 | 2.80962 | 3997 ft | 210 kts | 94° |
| 2026-05-08 22:31 | 36.70017 | 2.82754 | 4011 ft | 210 kts | 94° |
| 2026-05-08 22:32 | 36.69973 | 2.84574 | 3998 ft | 205 kts | 94° |
| 2026-05-08 22:32 | 36.69930 | 2.86368 | 4004 ft | 209 kts | 95° |
| 2026-05-08 22:32 | 36.69886 | 2.88182 | 4002 ft | 210 kts | 94° |
| 2026-05-08 22:32 | 36.69844 | 2.89988 | 3994 ft | 203 kts | 94° |
| 2026-05-08 22:33 | 36.69811 | 2.91696 | 3990 ft | 197 kts | 95° |
| 2026-05-08 22:33 | 36.69764 | 2.93409 | 4066 ft | 203 kts | 95° |
| 2026-05-08 22:33 | 36.69716 | 2.95220 | 3674 ft | 212 kts | 93° |
| 2026-05-08 22:33 | 36.69677 | 2.97042 | 3300 ft | 212 kts | 93° |
| 2026-05-08 22:34 | 36.69632 | 2.98889 | 2980 ft | 208 kts | 93° |
| 2026-05-08 22:34 | 36.69591 | 3.00616 | 2677 ft | 195 kts | 92° |
| 2026-05-08 22:34 | 36.69553 | 3.02249 | 2409 ft | 182 kts | 92° |
| 2026-05-08 22:34 | 36.69517 | 3.03779 | 2172 ft | 170 kts | 92° |
| 2026-05-08 22:35 | 36.69484 | 3.05204 | 1951 ft | 162 kts | 92° |
| 2026-05-08 22:35 | 36.69450 | 3.06611 | 1738 ft | 158 kts | 91° |
| 2026-05-08 22:35 | 36.69421 | 3.07915 | 1522 ft | 145 kts | 92° |
| 2026-05-08 22:35 | 36.69391 | 3.09210 | 1337 ft | 152 kts | 92° |
| 2026-05-08 22:36 | 36.69363 | 3.10480 | 1097 ft | 148 kts | 92° |
| 2026-05-08 22:36 | 36.69331 | 3.11788 | 839 ft | 147 kts | 93° |
| 2026-05-08 22:36 | 36.69299 | 3.13042 | 688 ft | 148 kts | 91° |
| 2026-05-08 22:36 | 36.69291 | 3.14310 | 520 ft | 142 kts | 91° |
| 2026-05-08 22:37 | 36.69235 | 3.15512 | 327 ft | 144 kts | 92° |
| 2026-05-08 22:37 | 36.69215 | 3.16768 | 165 ft | 141 kts | 90° |
| 2026-05-08 22:37 | 36.69185 | 3.17954 | 83 ft | 128 kts | 91° |
| 2026-05-08 22:37 | 36.69168 | 3.18898 | 85 ft | 87 kts | 91° |
| 2026-05-08 22:38 | 36.69155 | 3.19493 | 80 ft | 60 kts | 91° |
| 2026-05-08 22:38 | 36.69143 | 3.19966 | 83 ft | 40 kts | 94° |
| 2026-05-08 22:38 | 36.69134 | 3.20162 | 84 ft | 0 kts | 92° |